sensor_id;sensor_type;location;lat;lon;timestamp;pressure;altitude;pressure_sealevel;temperature;humidity
14232;BME280;7200;52.194;9.900;2022-10-14T00:01:47;100484.78;;;13.67;100.00
14232;BME280;7200;52.194;9.900;2022-10-14T00:04:13;100492.31;;;13.76;100.00
14232;BME280;7200;52.194;9.900;2022-10-14T00:06:39;100495.59;;;13.81;100.00
14232;BME280;7200;52.194;9.900;2022-10-14T00:09:06;100496.38;;;13.83;100.00
14232;BME280;7200;52.194;9.900;2022-10-14T00:11:33;100494.25;;;13.90;100.00
14232;BME280;7200;52.194;9.900;2022-10-14T00:14:06;100483.25;;;13.80;100.00
14232;BME280;7200;52.194;9.900;2022-10-14T00:16:33;100485.97;;;13.78;100.00
14232;BME280;7200;52.194;9.900;2022-10-14T00:19:00;100495.28;;;13.87;100.00
14232;BME280;7200;52.194;9.900;2022-10-14T00:21:26;100498.41;;;13.95;100.00
14232;BME280;7200;52.194;9.900;2022-10-14T00:23:52;100487.91;;;13.94;100.00
14232;BME280;7200;52.194;9.900;2022-10-14T00:26:24;100472.66;;;13.80;100.00
14232;BME280;7200;52.194;9.900;2022-10-14T00:28:50;100486.63;;;13.83;100.00
14232;BME280;7200;52.194;9.900;2022-10-14T00:31:16;100485.13;;;13.78;100.00
14232;BME280;7200;52.194;9.900;2022-10-14T00:33:42;100481.63;;;13.77;100.00
14232;BME280;7200;52.194;9.900;2022-10-14T00:36:09;100481.06;;;13.71;100.00
14232;BME280;7200;52.194;9.900;2022-10-14T00:38:35;100474.13;;;13.68;100.00
14232;BME280;7200;52.194;9.900;2022-10-14T00:41:00;100477.69;;;13.67;100.00
14232;BME280;7200;52.194;9.900;2022-10-14T00:43:27;100491.81;;;13.68;100.00
14232;BME280;7200;52.194;9.900;2022-10-14T00:45:52;100495.09;;;13.73;100.00
14232;BME280;7200;52.194;9.900;2022-10-14T00:48:20;100485.81;;;13.64;100.00
14232;BME280;7200;52.194;9.900;2022-10-14T00:50:50;100484.94;;;13.63;100.00
14232;BME280;7200;52.194;9.900;2022-10-14T00:53:17;100481.59;;;13.60;100.00
14232;BME280;7200;52.194;9.900;2022-10-14T00:55:43;100487.09;;;13.55;100.00
14232;BME280;7200;52.194;9.900;2022-10-14T00:58:10;100484.69;;;13.51;100.00
14232;BME280;7200;52.194;9.900;2022-10-14T01:00:36;100491.63;;;13.53;100.00
14232;BME280;7200;52.194;9.900;2022-10-14T01:03:09;100496.19;;;13.50;100.00
14232;BME280;7200;52.194;9.900;2022-10-14T01:05:42;100491.34;;;13.40;100.00
14232;BME280;7200;52.194;9.900;2022-10-14T01:11:16;100500.31;;;13.38;100.00
14232;BME280;7200;52.194;9.900;2022-10-14T01:17:05;100496.16;;;13.32;100.00
14232;BME280;7200;52.194;9.900;2022-10-14T01:22:07;100500.66;;;13.30;100.00
14232;BME280;7200;52.194;9.900;2022-10-14T01:24:41;100497.94;;;13.32;100.00
14232;BME280;7200;52.194;9.900;2022-10-14T01:30:45;100491.00;;;13.28;100.00
14232;BME280;7200;52.194;9.900;2022-10-14T01:33:08;100490.09;;;13.29;100.00
14232;BME280;7200;52.194;9.900;2022-10-14T01:35:46;100491.91;;;13.28;100.00
14232;BME280;7200;52.194;9.900;2022-10-14T01:38:26;100488.38;;;13.28;100.00
14232;BME280;7200;52.194;9.900;2022-10-14T01:40:59;100492.56;;;13.33;100.00
14232;BME280;7200;52.194;9.900;2022-10-14T01:43:27;100491.63;;;13.34;100.00
14232;BME280;7200;52.194;9.900;2022-10-14T01:45:55;100495.72;;;13.41;100.00
14232;BME280;7200;52.194;9.900;2022-10-14T01:48:27;100488.84;;;13.37;100.00
14232;BME280;7200;52.194;9.900;2022-10-14T01:50:58;100487.84;;;13.40;100.00
14232;BME280;7200;52.194;9.900;2022-10-14T01:53:29;100489.41;;;13.44;100.00
14232;BME280;7200;52.194;9.900;2022-10-14T01:55:56;100492.06;;;13.44;100.00
14232;BME280;7200;52.194;9.900;2022-10-14T01:58:25;100491.91;;;13.47;100.00
14232;BME280;7200;52.194;9.900;2022-10-14T02:00:51;100491.19;;;13.43;100.00
14232;BME280;7200;52.194;9.900;2022-10-14T02:03:17;100495.41;;;13.48;100.00
14232;BME280;7200;52.194;9.900;2022-10-14T02:05:48;100491.03;;;13.47;100.00
14232;BME280;7200;52.194;9.900;2022-10-14T02:11:12;100491.56;;;13.55;100.00
14232;BME280;7200;52.194;9.900;2022-10-14T02:19:17;100474.63;;;13.57;100.00
14232;BME280;7200;52.194;9.900;2022-10-14T02:21:52;100478.72;;;13.46;100.00
14232;BME280;7200;52.194;9.900;2022-10-14T02:24:22;100482.09;;;13.49;100.00
14232;BME280;7200;52.194;9.900;2022-10-14T02:26:53;100481.31;;;13.47;100.00
14232;BME280;7200;52.194;9.900;2022-10-14T02:29:20;100494.19;;;13.55;100.00
14232;BME280;7200;52.194;9.900;2022-10-14T02:31:47;100489.97;;;13.51;100.00
14232;BME280;7200;52.194;9.900;2022-10-14T02:34:16;100491.63;;;13.53;100.00
14232;BME280;7200;52.194;9.900;2022-10-14T02:36:43;100477.00;;;13.44;100.00
14232;BME280;7200;52.194;9.900;2022-10-14T02:39:12;100489.88;;;13.52;100.00
14232;BME280;7200;52.194;9.900;2022-10-14T02:41:39;100486.19;;;13.56;100.00
14232;BME280;7200;52.194;9.900;2022-10-14T02:44:05;100481.66;;;13.58;100.00
14232;BME280;7200;52.194;9.900;2022-10-14T02:46:31;100490.16;;;13.65;100.00
14232;BME280;7200;52.194;9.900;2022-10-14T02:48:56;100478.94;;;13.60;100.00
14232;BME280;7200;52.194;9.900;2022-10-14T02:51:21;100479.06;;;13.57;100.00
14232;BME280;7200;52.194;9.900;2022-10-14T02:53:47;100464.88;;;13.58;100.00
14232;BME280;7200;52.194;9.900;2022-10-14T02:56:12;100474.56;;;13.59;100.00
14232;BME280;7200;52.194;9.900;2022-10-14T02:58:38;100474.56;;;13.59;100.00
14232;BME280;7200;52.194;9.900;2022-10-14T03:01:03;100467.31;;;13.62;100.00
14232;BME280;7200;52.194;9.900;2022-10-14T03:03:29;100470.09;;;13.59;100.00
14232;BME280;7200;52.194;9.900;2022-10-14T03:05:54;100467.31;;;13.62;100.00
14232;BME280;7200;52.194;9.900;2022-10-14T03:08:19;100463.88;;;13.60;100.00
14232;BME280;7200;52.194;9.900;2022-10-14T03:10:45;100460.38;;;13.60;100.00
14232;BME280;7200;52.194;9.900;2022-10-14T03:13:11;100465.75;;;13.58;100.00
14232;BME280;7200;52.194;9.900;2022-10-14T03:15:36;100459.50;;;13.59;100.00
14232;BME280;7200;52.194;9.900;2022-10-14T03:18:02;100463.94;;;13.59;100.00
14232;BME280;7200;52.194;9.900;2022-10-14T03:20:27;100469.38;;;13.56;100.00
14232;BME280;7200;52.194;9.900;2022-10-14T03:22:52;100468.53;;;13.55;100.00
14232;BME280;7200;52.194;9.900;2022-10-14T03:25:18;100477.06;;;13.62;100.00
14232;BME280;7200;52.194;9.900;2022-10-14T03:27:43;100478.56;;;13.68;100.00
14232;BME280;7200;52.194;9.900;2022-10-14T03:30:09;100474.59;;;13.76;100.00
14232;BME280;7200;52.194;9.900;2022-10-14T03:32:34;100472.00;;;13.75;100.00
14232;BME280;7200;52.194;9.900;2022-10-14T03:34:59;100472.88;;;13.75;100.00
14232;BME280;7200;52.194;9.900;2022-10-14T03:37:25;100454.06;;;13.62;100.00
14232;BME280;7200;52.194;9.900;2022-10-14T03:39:50;100464.44;;;13.67;100.00
14232;BME280;7200;52.194;9.900;2022-10-14T03:42:17;100472.97;;;13.74;100.00
14232;BME280;7200;52.194;9.900;2022-10-14T03:44:42;100464.75;;;13.78;100.00
14232;BME280;7200;52.194;9.900;2022-10-14T03:47:08;100466.56;;;13.78;100.00
14232;BME280;7200;52.194;9.900;2022-10-14T03:49:34;100465.66;;;13.79;100.00
14232;BME280;7200;52.194;9.900;2022-10-14T03:51:59;100458.06;;;13.71;100.00
14232;BME280;7200;52.194;9.900;2022-10-14T03:54:24;100456.41;;;13.69;100.00
14232;BME280;7200;52.194;9.900;2022-10-14T03:56:49;100465.13;;;13.71;100.00
14232;BME280;7200;52.194;9.900;2022-10-14T03:59:15;100456.41;;;13.69;100.00
14232;BME280;7200;52.194;9.900;2022-10-14T04:01:40;100453.94;;;13.66;100.00
14232;BME280;7200;52.194;9.900;2022-10-14T04:04:06;100452.84;;;13.70;100.00
14232;BME280;7200;52.194;9.900;2022-10-14T04:06:31;100453.81;;;13.67;100.00
14232;BME280;7200;52.194;9.900;2022-10-14T04:08:56;100452.06;;;13.68;100.00
14232;BME280;7200;52.194;9.900;2022-10-14T04:11:22;100457.91;;;13.74;100.00
14232;BME280;7200;52.194;9.900;2022-10-14T04:13:47;100449.03;;;13.75;100.00
14232;BME280;7200;52.194;9.900;2022-10-14T04:16:12;100443.56;;;13.78;100.00
14232;BME280;7200;52.194;9.900;2022-10-14T04:18:38;100440.94;;;13.59;100.00
14232;BME280;7200;52.194;9.900;2022-10-14T04:21:06;100429.09;;;13.49;100.00
14232;BME280;7200;52.194;9.900;2022-10-14T04:23:31;100445.13;;;13.46;100.00
14232;BME280;7200;52.194;9.900;2022-10-14T04:25:57;100444.47;;;13.41;100.00
14232;BME280;7200;52.194;9.900;2022-10-14T04:28:22;100444.41;;;13.42;100.00
14232;BME280;7200;52.194;9.900;2022-10-14T04:30:48;100454.09;;;13.43;100.00
14232;BME280;7200;52.194;9.900;2022-10-14T04:33:13;100445.44;;;13.40;100.00
14232;BME280;7200;52.194;9.900;2022-10-14T04:35:38;100458.53;;;13.43;100.00
14232;BME280;7200;52.194;9.900;2022-10-14T04:38:04;100458.38;;;13.46;100.00
14232;BME280;7200;52.194;9.900;2022-10-14T04:40:29;100461.75;;;13.50;100.00
14232;BME280;7200;52.194;9.900;2022-10-14T04:42:55;100457.41;;;13.49;100.00
14232;BME280;7200;52.194;9.900;2022-10-14T04:45:21;100463.38;;;13.52;100.00
14232;BME280;7200;52.194;9.900;2022-10-14T04:47:46;100464.19;;;13.54;100.00
14232;BME280;7200;52.194;9.900;2022-10-14T04:50:11;100465.34;;;13.49;100.00
14232;BME280;7200;52.194;9.900;2022-10-14T04:52:37;100473.19;;;13.50;100.00
14232;BME280;7200;52.194;9.900;2022-10-14T04:55:02;100467.03;;;13.50;100.00
14232;BME280;7200;52.194;9.900;2022-10-14T04:57:28;100470.28;;;13.56;100.00
14232;BME280;7200;52.194;9.900;2022-10-14T04:59:53;100463.16;;;13.57;100.00
14232;BME280;7200;52.194;9.900;2022-10-14T05:02:18;100454.66;;;13.50;100.00
14232;BME280;7200;52.194;9.900;2022-10-14T05:04:43;100455.59;;;13.49;100.00
14232;BME280;7200;52.194;9.900;2022-10-14T05:07:09;100463.88;;;13.60;100.00
14232;BME280;7200;52.194;9.900;2022-10-14T05:09:34;100456.72;;;13.62;100.00
14232;BME280;7200;52.194;9.900;2022-10-14T05:11:59;100442.97;;;13.54;100.00
14232;BME280;7200;52.194;9.900;2022-10-14T05:14:25;100430.78;;;13.50;100.00
14232;BME280;7200;52.194;9.900;2022-10-14T05:16:50;100427.66;;;13.42;100.00
14232;BME280;7200;52.194;9.900;2022-10-14T05:19:15;100413.94;;;13.34;100.00
14232;BME280;7200;52.194;9.900;2022-10-14T05:21:41;100415.13;;;13.27;100.00
14232;BME280;7200;52.194;9.900;2022-10-14T05:24:06;100417.19;;;13.20;100.00
14232;BME280;7200;52.194;9.900;2022-10-14T05:26:31;100403.13;;;13.00;100.00
14232;BME280;7200;52.194;9.900;2022-10-14T05:28:57;100401.13;;;12.87;100.00
14232;BME280;7200;52.194;9.900;2022-10-14T05:31:22;100410.34;;;12.78;100.00
14232;BME280;7200;52.194;9.900;2022-10-14T05:33:48;100416.78;;;12.72;100.00
14232;BME280;7200;52.194;9.900;2022-10-14T05:36:13;100428.50;;;12.66;100.00
14232;BME280;7200;52.194;9.900;2022-10-14T05:38:38;100437.44;;;12.64;100.00
14232;BME280;7200;52.194;9.900;2022-10-14T05:41:04;100451.38;;;12.68;100.00
14232;BME280;7200;52.194;9.900;2022-10-14T05:43:29;100452.03;;;12.73;100.00
14232;BME280;7200;52.194;9.900;2022-10-14T05:45:54;100451.25;;;12.71;100.00
14232;BME280;7200;52.194;9.900;2022-10-14T05:48:20;100450.97;;;12.77;100.00
14232;BME280;7200;52.194;9.900;2022-10-14T05:50:45;100457.69;;;12.84;100.00
14232;BME280;7200;52.194;9.900;2022-10-14T05:53:10;100455.22;;;12.81;100.00
14232;BME280;7200;52.194;9.900;2022-10-14T05:55:36;100459.22;;;12.90;100.00
14232;BME280;7200;52.194;9.900;2022-10-14T05:58:02;100454.50;;;12.96;100.00
14232;BME280;7200;52.194;9.900;2022-10-14T06:00:27;100447.53;;;12.94;100.00
14232;BME280;7200;52.194;9.900;2022-10-14T06:02:52;100451.63;;;13.01;100.00
14232;BME280;7200;52.194;9.900;2022-10-14T06:05:18;100457.28;;;13.12;100.00
14232;BME280;7200;52.194;9.900;2022-10-14T06:07:43;100463.97;;;13.21;100.00
14232;BME280;7200;52.194;9.900;2022-10-14T06:10:08;100465.31;;;13.30;100.00
14232;BME280;7200;52.194;9.900;2022-10-14T06:12:35;100458.03;;;13.35;100.00
14232;BME280;7200;52.194;9.900;2022-10-14T06:15:00;100458.53;;;13.43;100.00
14232;BME280;7200;52.194;9.900;2022-10-14T06:17:27;100465.09;;;13.53;100.00
14232;BME280;7200;52.194;9.900;2022-10-14T06:19:52;100459.66;;;13.56;100.00
14232;BME280;7200;52.194;9.900;2022-10-14T06:22:17;100462.88;;;13.63;100.00
14232;BME280;7200;52.194;9.900;2022-10-14T06:24:43;100456.84;;;13.59;100.00
14232;BME280;7200;52.194;9.900;2022-10-14T06:27:08;100463.44;;;13.70;100.00
14232;BME280;7200;52.194;9.900;2022-10-14T06:29:33;100463.38;;;13.71;100.00
14232;BME280;7200;52.194;9.900;2022-10-14T06:32:05;100462.13;;;13.78;100.00
14232;BME280;7200;52.194;9.900;2022-10-14T06:34:31;100444.38;;;13.61;100.00
14232;BME280;7200;52.194;9.900;2022-10-14T06:36:57;100442.69;;;13.60;100.00
14232;BME280;7200;52.194;9.900;2022-10-14T06:39:23;100451.69;;;13.75;100.00
14232;BME280;7200;52.194;9.900;2022-10-14T06:41:48;100444.81;;;13.71;100.00
14232;BME280;7200;52.194;9.900;2022-10-14T06:44:14;100445.81;;;13.69;100.00
14232;BME280;7200;52.194;9.900;2022-10-14T06:46:40;100441.78;;;13.79;100.00
14232;BME280;7200;52.194;9.900;2022-10-14T06:49:05;100444.19;;;13.83;100.00
14232;BME280;7200;52.194;9.900;2022-10-14T06:51:31;100445.91;;;13.85;100.00
14232;BME280;7200;52.194;9.900;2022-10-14T06:53:56;100446.31;;;13.94;100.00
14232;BME280;7200;52.194;9.900;2022-10-14T06:56:21;100432.97;;;13.96;100.00
14232;BME280;7200;52.194;9.900;2022-10-14T06:58:46;100435.53;;;13.97;100.00
14232;BME280;7200;52.194;9.900;2022-10-14T07:01:12;100450.00;;;14.09;100.00
14232;BME280;7200;52.194;9.900;2022-10-14T07:03:37;100443.19;;;14.21;100.00
14232;BME280;7200;52.194;9.900;2022-10-14T07:06:06;100448.50;;;14.21;100.00
14232;BME280;7200;52.194;9.900;2022-10-14T07:08:32;100445.69;;;14.24;100.00
14232;BME280;7200;52.194;9.900;2022-10-14T07:10:58;100417.97;;;13.95;100.00
14232;BME280;7200;52.194;9.900;2022-10-14T07:13:23;100431.56;;;14.06;100.00
14232;BME280;7200;52.194;9.900;2022-10-14T07:15:49;100438.75;;;14.04;100.00
14232;BME280;7200;52.194;9.900;2022-10-14T07:18:16;100444.69;;;14.09;100.00
14232;BME280;7200;52.194;9.900;2022-10-14T07:20:41;100422.91;;;14.02;100.00
14232;BME280;7200;52.194;9.900;2022-10-14T07:23:06;100434.28;;;14.05;100.00
14232;BME280;7200;52.194;9.900;2022-10-14T07:25:31;100427.75;;;13.94;100.00
14232;BME280;7200;52.194;9.900;2022-10-14T07:27:57;100438.81;;;14.02;100.00
14232;BME280;7200;52.194;9.900;2022-10-14T07:30:23;100453.81;;;14.21;100.00
14232;BME280;7200;52.194;9.900;2022-10-14T07:32:48;100445.00;;;14.20;100.00
14232;BME280;7200;52.194;9.900;2022-10-14T07:35:14;100450.19;;;14.39;100.00
14232;BME280;7200;52.194;9.900;2022-10-14T07:37:39;100448.41;;;14.57;100.00
14232;BME280;7200;52.194;9.900;2022-10-14T07:40:05;100457.19;;;14.75;100.00
14232;BME280;7200;52.194;9.900;2022-10-14T07:42:30;100432.59;;;14.72;100.00
14232;BME280;7200;52.194;9.900;2022-10-14T07:44:56;100430.91;;;14.87;100.00
14232;BME280;7200;52.194;9.900;2022-10-14T07:47:22;100430.56;;;14.93;100.00
14232;BME280;7200;52.194;9.900;2022-10-14T07:49:49;100397.38;;;14.68;100.00
14232;BME280;7200;52.194;9.900;2022-10-14T07:52:17;100405.00;;;14.74;100.00
14232;BME280;7200;52.194;9.900;2022-10-14T07:54:44;100384.97;;;14.51;100.00
14232;BME280;7200;52.194;9.900;2022-10-14T07:57:09;100397.66;;;14.64;100.00
14232;BME280;7200;52.194;9.900;2022-10-14T07:59:34;100397.22;;;14.54;100.00
14232;BME280;7200;52.194;9.900;2022-10-14T08:02:00;100410.22;;;14.60;100.00
14232;BME280;7200;52.194;9.900;2022-10-14T08:04:25;100417.06;;;14.64;100.00
14232;BME280;7200;52.194;9.900;2022-10-14T08:06:51;100401.59;;;14.55;100.00
14232;BME280;7200;52.194;9.900;2022-10-14T08:09:17;100413.03;;;14.57;100.00
14232;BME280;7200;52.194;9.900;2022-10-14T08:11:43;100419.41;;;14.70;100.00
14232;BME280;7200;52.194;9.900;2022-10-14T08:14:09;100405.19;;;14.71;100.00
14232;BME280;7200;52.194;9.900;2022-10-14T08:16:35;100408.91;;;14.85;100.00
14232;BME280;7200;52.194;9.900;2022-10-14T08:19:04;100400.31;;;14.79;100.00
14232;BME280;7200;52.194;9.900;2022-10-14T08:21:30;100402.53;;;14.87;100.00
14232;BME280;7200;52.194;9.900;2022-10-14T08:23:56;100401.28;;;14.94;100.00
14232;BME280;7200;52.194;9.900;2022-10-14T08:26:26;100396.31;;;15.04;100.00
14232;BME280;7200;52.194;9.900;2022-10-14T08:28:52;100379.94;;;14.96;100.00
14232;BME280;7200;52.194;9.900;2022-10-14T08:31:18;100375.13;;;15.03;100.00
14232;BME280;7200;52.194;9.900;2022-10-14T08:33:43;100351.31;;;14.69;100.00
14232;BME280;7200;52.194;9.900;2022-10-14T08:36:09;100344.34;;;14.67;100.00
14232;BME280;7200;52.194;9.900;2022-10-14T08:38:34;100340.53;;;14.55;100.00
14232;BME280;7200;52.194;9.900;2022-10-14T08:46:37;100356.28;;;14.75;100.00
14232;BME280;7200;52.194;9.900;2022-10-14T08:52:03;100343.34;;;14.85;100.00
14232;BME280;7200;52.194;9.900;2022-10-14T08:55:14;100365.88;;;15.10;100.00
14232;BME280;7200;52.194;9.900;2022-10-14T08:57:47;100340.06;;;15.12;100.00
14232;BME280;7200;52.194;9.900;2022-10-14T09:00:14;100349.56;;;15.32;100.00
14232;BME280;7200;52.194;9.900;2022-10-14T09:02:49;100344.41;;;15.45;100.00
14232;BME280;7200;52.194;9.900;2022-10-14T09:05:20;100363.63;;;15.80;100.00
14232;BME280;7200;52.194;9.900;2022-10-14T09:07:46;100340.44;;;15.82;100.00
14232;BME280;7200;52.194;9.900;2022-10-14T09:10:20;100326.13;;;15.85;100.00
14232;BME280;7200;52.194;9.900;2022-10-14T09:12:47;100327.34;;;15.93;100.00
14232;BME280;7200;52.194;9.900;2022-10-14T09:15:36;100310.75;;;15.90;100.00
14232;BME280;7200;52.194;9.900;2022-10-14T09:20:40;100283.34;;;15.43;100.00
14232;BME280;7200;52.194;9.900;2022-10-14T09:23:16;100301.13;;;15.57;100.00
14232;BME280;7200;52.194;9.900;2022-10-14T09:26:06;100307.22;;;15.59;100.00
14232;BME280;7200;52.194;9.900;2022-10-14T09:28:41;100323.84;;;15.93;100.00
14232;BME280;7200;52.194;9.900;2022-10-14T09:31:10;100320.91;;;15.98;100.00
14232;BME280;7200;52.194;9.900;2022-10-14T09:33:36;100301.41;;;15.83;100.00
14232;BME280;7200;52.194;9.900;2022-10-14T09:36:25;100288.28;;;15.80;100.00
14232;BME280;7200;52.194;9.900;2022-10-14T09:38:52;100275.50;;;15.70;100.00
14232;BME280;7200;52.194;9.900;2022-10-14T09:41:25;100274.50;;;15.73;100.00
14232;BME280;7200;52.194;9.900;2022-10-14T09:44:14;100266.69;;;15.70;100.00
14232;BME280;7200;52.194;9.900;2022-10-14T09:46:46;100271.28;;;15.82;100.00
14232;BME280;7200;52.194;9.900;2022-10-14T09:49:18;100271.69;;;15.90;100.00
14232;BME280;7200;52.194;9.900;2022-10-14T09:51:44;100283.94;;;16.07;100.00
14232;BME280;7200;52.194;9.900;2022-10-14T09:54:21;100281.00;;;16.26;100.00
14232;BME280;7200;52.194;9.900;2022-10-14T09:56:47;100291.91;;;16.50;100.00
14232;BME280;7200;52.194;9.900;2022-10-14T09:59:19;100296.50;;;16.76;100.00
14232;BME280;7200;52.194;9.900;2022-10-14T10:01:56;100293.63;;;16.93;100.00
14232;BME280;7200;52.194;9.900;2022-10-14T10:06:58;100280.00;;;17.25;100.00
14232;BME280;7200;52.194;9.900;2022-10-14T10:09:25;100252.97;;;17.04;100.00
14232;BME280;7200;52.194;9.900;2022-10-14T10:11:50;100241.09;;;16.95;100.00
14232;BME280;7200;52.194;9.900;2022-10-14T10:16:42;100216.00;;;16.58;100.00
14232;BME280;7200;52.194;9.900;2022-10-14T10:24:46;100181.44;;;16.29;100.00
14232;BME280;7200;52.194;9.900;2022-10-14T10:27:30;100187.59;;;16.44;100.00
14232;BME280;7200;52.194;9.900;2022-10-14T10:38:57;100192.66;;;16.61;100.00
14232;BME280;7200;52.194;9.900;2022-10-14T10:49:44;100176.00;;;17.12;100.00
14232;BME280;7200;52.194;9.900;2022-10-14T10:52:28;100155.81;;;16.95;100.00
14232;BME280;7200;52.194;9.900;2022-10-14T10:58:08;100162.91;;;17.22;100.00
14232;BME280;7200;52.194;9.900;2022-10-14T11:00:58;100167.41;;;17.47;100.00
14232;BME280;7200;52.194;9.900;2022-10-14T11:03:43;100137.22;;;17.34;100.00
14232;BME280;7200;52.194;9.900;2022-10-14T11:06:23;100108.09;;;17.05;100.00
14232;BME280;7200;52.194;9.900;2022-10-14T11:09:18;100136.22;;;17.35;100.00
14232;BME280;7200;52.194;9.900;2022-10-14T11:14:53;100112.03;;;17.63;100.00
14232;BME280;7200;52.194;9.900;2022-10-14T11:17:45;100103.28;;;17.48;100.00
14232;BME280;7200;52.194;9.900;2022-10-14T11:20:27;100106.69;;;17.38;100.00
14232;BME280;7200;52.194;9.900;2022-10-14T11:34:50;100070.75;;;17.43;100.00
14232;BME280;7200;52.194;9.900;2022-10-14T11:37:28;100078.00;;;17.54;100.00
14232;BME280;7200;52.194;9.900;2022-10-14T11:42:46;100064.75;;;17.65;100.00
14232;BME280;7200;52.194;9.900;2022-10-14T11:48:13;100064.09;;;17.62;100.00
14232;BME280;7200;52.194;9.900;2022-10-14T11:50:46;100050.13;;;17.58;100.00
14232;BME280;7200;52.194;9.900;2022-10-14T11:53:17;100021.91;;;17.30;100.00
14232;BME280;7200;52.194;9.900;2022-10-14T11:55:59;100049.13;;;17.35;100.00
14232;BME280;7200;52.194;9.900;2022-10-14T11:58:28;100055.72;;;17.42;100.00
14232;BME280;7200;52.194;9.900;2022-10-14T12:01:16;100031.28;;;17.36;100.00
14232;BME280;7200;52.194;9.900;2022-10-14T12:03:46;100045.25;;;17.39;100.00
14232;BME280;7200;52.194;9.900;2022-10-14T12:06:20;100054.31;;;17.49;100.00
14232;BME280;7200;52.194;9.900;2022-10-14T12:09:24;100042.88;;;17.47;100.00
14232;BME280;7200;52.194;9.900;2022-10-14T12:12:17;100040.91;;;17.25;100.00
14232;BME280;7200;52.194;9.900;2022-10-14T12:14:47;100046.75;;;17.30;100.00
14232;BME280;7200;52.194;9.900;2022-10-14T12:17:24;100040.28;;;17.22;100.00
14232;BME280;7200;52.194;9.900;2022-10-14T12:19:52;100043.34;;;17.28;100.00
14232;BME280;7200;52.194;9.900;2022-10-14T12:22:21;100038.00;;;17.41;100.00
14232;BME280;7200;52.194;9.900;2022-10-14T12:24:51;100019.78;;;17.35;100.00
14232;BME280;7200;52.194;9.900;2022-10-14T12:27:19;100003.25;;;17.30;100.00
14232;BME280;7200;52.194;9.900;2022-10-14T12:29:47;100001.78;;;17.13;100.00
14232;BME280;7200;52.194;9.900;2022-10-14T12:34:55;100027.69;;;17.37;100.00
14232;BME280;7200;52.194;9.900;2022-10-14T12:39:53;100020.19;;;17.42;100.00
14232;BME280;7200;52.194;9.900;2022-10-14T12:42:19;100000.69;;;17.28;100.00
14232;BME280;7200;52.194;9.900;2022-10-14T12:44:51;99990.75;;;17.30;100.00
14232;BME280;7200;52.194;9.900;2022-10-14T12:49:47;99970.56;;;17.02;100.00
14232;BME280;7200;52.194;9.900;2022-10-14T12:52:19;99993.25;;;17.21;100.00
14232;BME280;7200;52.194;9.900;2022-10-14T12:54:48;99991.31;;;17.23;100.00
14232;BME280;7200;52.194;9.900;2022-10-14T12:57:29;99980.34;;;17.15;100.00
14232;BME280;7200;52.194;9.900;2022-10-14T13:00:01;99981.66;;;17.09;100.00
14232;BME280;7200;52.194;9.900;2022-10-14T13:02:32;99985.25;;;17.08;100.00
14232;BME280;7200;52.194;9.900;2022-10-14T13:05:02;99986.44;;;17.17;100.00
14232;BME280;7200;52.194;9.900;2022-10-14T13:07:36;99978.00;;;17.10;100.00
14232;BME280;7200;52.194;9.900;2022-10-14T13:16:05;99965.94;;;17.17;100.00
14232;BME280;7200;52.194;9.900;2022-10-14T13:18:47;99971.72;;;17.24;100.00
14232;BME280;7200;52.194;9.900;2022-10-14T13:24:20;99976.53;;;17.56;100.00
14232;BME280;7200;52.194;9.900;2022-10-14T13:31:46;99948.13;;;17.55;100.00
14232;BME280;7200;52.194;9.900;2022-10-14T13:39:27;99929.78;;;17.74;100.00
14232;BME280;7200;52.194;9.900;2022-10-14T13:41:55;99912.28;;;17.59;100.00
14232;BME280;7200;52.194;9.900;2022-10-14T13:44:21;99928.00;;;17.75;100.00
14232;BME280;7200;52.194;9.900;2022-10-14T13:46:47;99918.91;;;17.77;100.00
14232;BME280;7200;52.194;9.900;2022-10-14T13:49:18;99915.63;;;17.74;100.00
14232;BME280;7200;52.194;9.900;2022-10-14T13:51:50;99921.34;;;17.80;100.00
14232;BME280;7200;52.194;9.900;2022-10-14T13:54:20;99935.44;;;18.06;100.00
14232;BME280;7200;52.194;9.900;2022-10-14T13:57:07;99926.34;;;18.09;100.00
14232;BME280;7200;52.194;9.900;2022-10-14T13:59:38;99918.44;;;18.07;100.00
14232;BME280;7200;52.194;9.900;2022-10-14T14:02:11;99867.66;;;17.61;100.00
14232;BME280;7200;52.194;9.900;2022-10-14T14:04:37;99901.44;;;17.73;100.00
14232;BME280;7200;52.194;9.900;2022-10-14T14:07:03;99907.16;;;17.80;100.00
14232;BME280;7200;52.194;9.900;2022-10-14T14:09:30;99886.13;;;17.64;100.00
14232;BME280;7200;52.194;9.900;2022-10-14T14:11:59;99892.88;;;17.57;100.00
14232;BME280;7200;52.194;9.900;2022-10-14T14:14:40;99879.63;;;17.55;100.00
14232;BME280;7200;52.194;9.900;2022-10-14T14:17:11;99858.91;;;17.35;100.00
14232;BME280;7200;52.194;9.900;2022-10-14T14:19:42;99849.63;;;17.16;100.00
14232;BME280;7200;52.194;9.900;2022-10-14T14:22:30;99869.34;;;17.13;100.00
14232;BME280;7200;52.194;9.900;2022-10-14T14:27:48;99865.09;;;17.11;100.00
14232;BME280;7200;52.194;9.900;2022-10-14T14:30:26;99860.72;;;17.10;100.00
14232;BME280;7200;52.194;9.900;2022-10-14T14:32:55;99860.78;;;17.21;100.00
14232;BME280;7200;52.194;9.900;2022-10-14T14:35:22;99840.59;;;17.06;100.00
14232;BME280;7200;52.194;9.900;2022-10-14T14:37:47;99852.63;;;17.11;100.00
14232;BME280;7200;52.194;9.900;2022-10-14T14:40:17;99852.50;;;17.13;100.00
14232;BME280;7200;52.194;9.900;2022-10-14T14:42:44;99846.44;;;17.11;100.00
14232;BME280;7200;52.194;9.900;2022-10-14T14:45:15;99853.66;;;17.22;100.00
14232;BME280;7200;52.194;9.900;2022-10-14T14:47:44;99846.06;;;17.28;100.00
14232;BME280;7200;52.194;9.900;2022-10-14T14:50:14;99838.78;;;17.30;100.00
14232;BME280;7200;52.194;9.900;2022-10-14T14:52:41;99828.81;;;17.21;100.00